Cacapava, Brazil
Current Conditions -  °F | °C
As of 5:00 PM on Sunday 21 Dec 2014 (Local Time) from SBSJ Reporting Station
Broken Clouds Broken Clouds  
Wind Chill: 90°   Ceiling: 4500
Heat Index: 92°   Visibility: 6mi
Dew Point: 66°   Wind: 8mph
Humidity: 46%   Direction: 310°NW
Pressure: 29.83"   Gusts: NA
Location:  23.1°S, 45.71°W
Report Text: SBSJ 211900Z 31007KT 9999 BKN045 32/19 Q1010
Loading
Personal Weather Stations






























Interactive Weather Map New forecast layout! Learn more

10-Day Weather Forecast

Advertisements
Track Severe Weather on mobile